Time;durP1;ratioP1;P1;durP2;ratioP2;P2;SDS_P1;SDS_P2;PMS_P1;PMS_P2;Temp;Humidity;BMP_temperature;BMP_pressure;BME280_temperature;BME280_humidity;BME280_pressure;Samples;Min_cycle;Max_cycle;Signal;HPM_P1;HPM_P2
2022/08/08 00:00:11;;;;;;;9.93;6.10;;;;;;;16.26;73.74;102273.66;6214925;23;20386;-69
2022/08/08 00:02:40;;;;;;;9.20;5.90;;;;;;;16.30;74.00;102276.75;6184488;23;20020;-70
2022/08/08 00:05:09;;;;;;;12.50;6.00;;;;;;;16.15;75.06;102273.59;6214800;23;20000;-70
2022/08/08 00:07:47;;;;;;;12.63;6.47;;;;;;;16.01;75.93;102273.72;6215219;23;20422;-70
2022/08/08 00:10:18;;;;;;;10.93;6.25;;;;;;;16.01;76.00;102273.72;6214811;23;20004;-70
2022/08/08 00:12:49;;;;;;;10.00;5.72;;;;;;;16.03;75.99;102266.13;6214937;23;20004;-70
2022/08/08 00:15:20;;;;;;;11.13;6.78;;;;;;;15.95;77.49;102275.47;6215308;23;20067;-70
2022/08/08 00:17:54;;;;;;;11.13;6.72;;;;;;;15.93;76.57;102280.34;6215139;23;20016;-70
2022/08/08 00:20:30;;;;;;;12.25;6.82;;;;;;;15.98;77.00;102276.09;6214864;23;20009;-70
2022/08/08 00:23:00;;;;;;;13.73;6.35;;;;;;;15.83;77.95;102281.91;6214701;23;20051;-70
2022/08/08 00:25:30;;;;;;;13.10;7.07;;;;;;;15.93;77.91;102284.97;6214943;23;20491;-70
2022/08/08 00:27:59;;;;;;;9.98;6.03;;;;;;;15.82;79.31;102282.97;6214977;23;20059;-69
2022/08/08 00:30:31;;;;;;;15.05;7.07;;;;;;;15.85;78.52;102280.63;6214775;23;20012;-71
2022/08/08 00:33:04;;;;;;;10.93;6.60;;;;;;;15.92;78.38;102280.56;6214579;23;20000;-71
2022/08/08 00:35:48;;;;;;;13.32;6.93;;;;;;;15.89;78.01;102291.94;6215090;23;20001;-69
2022/08/08 00:38:36;;;;;;;16.58;7.55;;;;;;;15.80;79.50;102288.66;6214833;23;20011;-69
2022/08/08 00:41:38;;;;;;;15.23;7.45;;;;;;;15.90;77.64;102286.25;6214105;23;20083;-70
2022/08/08 00:44:17;;;;;;;11.55;7.40;;;;;;;15.89;78.53;102286.47;6214802;23;20039;-70
2022/08/08 00:46:43;;;;;;;10.02;7.32;;;;;;;15.82;79.31;102283.81;6214786;23;20031;-70
2022/08/08 00:49:29;;;;;;;13.60;7.30;;;;;;;15.80;78.79;102283.19;6214707;23;20004;-69
2022/08/08 00:52:08;;;;;;;9.85;7.60;;;;;;;15.76;78.49;102277.31;6214515;23;20709;-69
2022/08/08 00:55:07;;;;;;;10.50;7.70;;;;;;;15.68;80.97;102274.88;6214939;23;20036;-69
2022/08/08 00:58:20;;;;;;;9.23;7.32;;;;;;;15.73;79.71;102271.47;6215242;23;20004;-70
2022/08/08 01:01:27;;;;;;;13.13;7.97;;;;;;;15.70;80.85;102277.38;6210206;23;20005;-70
2022/08/08 01:04:30;;;;;;;10.45;8.05;;;;;;;15.75;79.62;102270.19;6198584;23;20005;-70
2022/08/08 01:07:23;;;;;;;12.18;7.70;;;;;;;15.67;80.46;102277.81;6214725;23;19996;-70
2022/08/08 01:09:54;;;;;;;10.45;8.18;;;;;;;15.68;81.84;102269.41;6213816;23;20096;-70
2022/08/08 01:12:36;;;;;;;15.13;8.57;;;;;;;15.66;82.88;102268.00;6214402;23;20039;-71
2022/08/08 01:15:39;;;;;;;14.55;8.57;;;;;;;15.74;81.25;102267.69;6214245;23;20005;-70
2022/08/08 01:18:26;;;;;;;11.90;9.60;;;;;;;15.67;82.29;102270.50;6214270;23;20000;-70
2022/08/08 01:21:06;;;;;;;11.13;8.15;;;;;;;15.64;83.42;102270.94;6214629;23;20042;-71
2022/08/08 01:23:49;;;;;;;14.75;8.63;;;;;;;15.61;83.55;102263.22;6215909;23;20007;-70
2022/08/08 01:26:26;;;;;;;14.85;8.75;;;;;;;15.58;84.30;102271.84;6229072;23;19997;-70
2022/08/08 01:29:28;;;;;;;11.23;8.63;;;;;;;15.62;83.32;102270.31;6241080;23;20015;-71
2022/08/08 01:32:30;;;;;;;12.43;8.23;;;;;;;15.53;83.57;102267.03;6214533;23;20039;-71
2022/08/08 01:35:21;;;;;;;12.93;8.88;;;;;;;15.44;84.87;102262.09;6214368;23;20067;-71
2022/08/08 01:38:25;;;;;;;12.10;8.27;;;;;;;15.40;84.36;102267.16;6214320;23;20008;-71
2022/08/08 01:41:11;;;;;;;11.38;8.02;;;;;;;15.29;86.66;102255.06;6214430;23;20008;-71
2022/08/08 01:43:54;;;;;;;12.48;9.05;;;;;;;15.28;85.40;102255.28;6186476;23;20044;-71
2022/08/08 01:46:46;;;;;;;13.57;8.30;;;;;;;15.23;85.03;102256.81;6213957;23;20451;-71
2022/08/08 01:49:34;;;;;;;13.73;9.27;;;;;;;15.18;86.49;102253.06;6213381;23;20008;-70
2022/08/08 01:52:31;;;;;;;11.90;8.48;;;;;;;15.19;86.46;102252.84;6154972;23;20553;-71
2022/08/08 01:55:11;;;;;;;11.20;8.30;;;;;;;15.13;87.08;102256.47;6213844;23;20410;-71
2022/08/08 01:57:47;;;;;;;13.65;9.02;;;;;;;15.01;88.13;102264.50;6214383;23;20055;-71
2022/08/08 02:00:25;;;;;;;13.32;8.98;;;;;;;14.95;89.07;102270.84;6214030;23;20444;-71
2022/08/08 02:02:58;;;;;;;10.20;8.80;;;;;;;14.98;89.52;102275.03;6211472;23;20048;-71
2022/08/08 02:05:49;;;;;;;12.05;9.45;;;;;;;14.97;88.74;102268.72;6213150;23;20021;-70
2022/08/08 02:08:24;;;;;;;16.23;9.35;;;;;;;14.82;90.49;102270.91;6214214;23;20458;-70
2022/08/08 02:11:00;;;;;;;17.63;8.77;;;;;;;14.80;91.56;102273.03;6214484;23;20005;-71
2022/08/08 02:13:56;;;;;;;14.63;9.10;;;;;;;14.78;90.72;102269.69;6214235;23;20005;-71
2022/08/08 02:16:27;;;;;;;11.85;8.35;;;;;;;14.69;92.74;102269.94;6213029;23;20024;-70
2022/08/08 02:19:02;;;;;;;13.90;8.75;;;;;;;14.76;91.46;102269.06;6211879;23;20333;-70
2022/08/08 02:25:02;;;;;;;13.65;8.48;;;;;;;14.69;91.54;102269.94;6216008;23;20074;-70
2022/08/08 02:27:40;;;;;;;12.80;9.20;;;;;;;14.63;92.33;102276.25;6216405;23;20005;-70
2022/08/08 02:30:07;;;;;;;12.38;8.65;;;;;;;14.64;92.81;102269.75;6216431;23;20414;-70
2022/08/08 02:33:02;;;;;;;16.65;9.65;;;;;;;14.60;92.29;102268.50;6215950;23;20000;-70
2022/08/08 02:35:36;;;;;;;10.60;8.50;;;;;;;14.61;92.30;102270.19;6216775;23;20059;-70
2022/08/08 02:38:40;;;;;;;14.77;9.30;;;;;;;14.58;91.88;102264.31;6216311;23;20007;-70
2022/08/08 02:41:12;;;;;;;14.63;9.43;;;;;;;14.47;94.16;102263.09;6214700;23;20418;-70
2022/08/08 02:43:58;;;;;;;13.32;9.35;;;;;;;14.48;94.55;102262.91;6216183;23;20480;-71
2022/08/08 02:46:29;;;;;;;14.00;9.10;;;;;;;14.49;93.88;102264.56;6216616;23;20437;-70
2022/08/08 02:49:19;;;;;;;10.98;9.00;;;;;;;14.53;92.94;102260.34;6216189;23;20006;-70
2022/08/08 02:51:55;;;;;;;12.43;8.80;;;;;;;14.51;94.84;102262.47;6215978;23;20007;-71
2022/08/08 02:54:41;;;;;;;14.07;9.88;;;;;;;14.54;93.35;102264.75;6216248;23;20070;-70
2022/08/08 02:57:44;;;;;;;13.88;8.82;;;;;;;14.52;94.08;102266.00;6215231;23;20075;-70
2022/08/08 03:00:19;;;;;;;14.23;9.55;;;;;;;14.49;95.52;102261.84;6216026;23;20072;-71
2022/08/08 03:03:12;;;;;;;14.35;9.55;;;;;;;14.39;95.49;102266.06;6210668;23;20027;-71
2022/08/08 03:06:26;;;;;;;11.48;8.68;;;;;;;14.40;93.52;102270.47;6216489;23;20011;-71
2022/08/08 03:09:32;;;;;;;17.92;9.60;;;;;;;14.32;93.60;102272.38;6165070;23;20008;-70
2022/08/08 03:12:24;;;;;;;12.60;9.52;;;;;;;14.25;95.27;102266.13;6214762;23;20075;-70
2022/08/08 03:15:30;;;;;;;12.25;9.45;;;;;;;14.22;95.83;102271.16;6216482;23;20080;-71
2022/08/08 03:18:44;;;;;;;13.52;9.93;;;;;;;14.17;97.67;102269.09;6199551;23;20009;-71
2022/08/08 03:21:09;;;;;;;17.05;10.35;;;;;;;14.04;100.00;102275.41;6107650;23;20102;-71
2022/08/08 03:23:34;;;;;;;13.80;9.57;;;;;;;14.00;100.00;102272.25;6215749;23;20004;-71
2022/08/08 03:26:00;;;;;;;12.40;9.65;;;;;;;14.05;100.00;102265.34;6214791;23;20005;-70
2022/08/08 03:28:40;;;;;;;16.15;10.05;;;;;;;14.06;100.00;102272.47;6215691;23;20011;-71
2022/08/08 03:33:17;;;;;;;16.13;10.35;;;;;;;13.98;100.00;102268.94;6188153;23;20005;-71
2022/08/08 03:33:52;;;;;;;15.95;10.50;;;;;;;13.89;100.00;102281.09;6215399;23;20016;-70
2022/08/08 03:36:17;;;;;;;14.82;10.13;;;;;;;13.91;100.00;102281.72;6215815;23;20000;-70
2022/08/08 03:38:48;;;;;;;14.27;10.07;;;;;;;13.89;100.00;102278.38;6215521;23;20015;-70
2022/08/08 03:41:13;;;;;;;13.98;9.77;;;;;;;13.83;100.00;102269.16;6214843;23;20079;-70
2022/08/08 03:43:38;;;;;;;16.02;10.00;;;;;;;13.74;100.00;102280.47;6215623;23;20047;-70
2022/08/08 03:46:04;;;;;;;13.38;10.40;;;;;;;13.75;100.00;102282.16;6215454;23;20079;-70
2022/08/08 03:48:30;;;;;;;15.52;10.23;;;;;;;13.81;100.00;102284.03;6215452;23;20358;-71
2022/08/08 03:50:55;;;;;;;16.60;10.68;;;;;;;13.76;100.00;102275.66;6214863;23;20001;-71
2022/08/08 03:53:20;;;;;;;17.23;11.20;;;;;;;13.83;100.00;102279.22;6215086;23;20438;-71
2022/08/08 03:55:48;;;;;;;15.32;11.13;;;;;;;13.86;100.00;102286.09;6216087;23;20007;-71
2022/08/08 03:58:24;;;;;;;15.00;10.13;;;;;;;13.90;100.00;102288.19;6214262;23;20005;-71
2022/08/08 04:00:52;;;;;;;12.88;9.95;;;;;;;13.99;100.00;102289.66;6185085;23;20008;-70
2022/08/08 04:03:17;;;;;;;17.15;11.13;;;;;;;14.01;100.00;102286.72;6214247;23;20012;-70
2022/08/08 04:05:43;;;;;;;15.25;10.18;;;;;;;14.05;100.00;102298.00;6215848;23;20000;-71
2022/08/08 04:08:18;;;;;;;16.42;10.88;;;;;;;13.96;100.00;102295.50;6214966;23;20004;-70
2022/08/08 04:10:46;;;;;;;17.58;10.63;;;;;;;13.89;100.00;102305.59;6215406;23;20311;-71
2022/08/08 04:13:11;;;;;;;14.60;11.15;;;;;;;13.97;100.00;102304.53;6214497;23;20307;-71
2022/08/08 04:15:37;;;;;;;15.48;10.85;;;;;;;13.93;100.00;102298.66;6189426;23;20004;-70
2022/08/08 04:18:02;;;;;;;15.15;11.55;;;;;;;13.97;100.00;102299.91;6215516;23;20004;-70
2022/08/08 04:20:28;;;;;;;13.65;10.38;;;;;;;14.00;100.00;102296.75;6221505;23;20072;-70
2022/08/08 04:22:54;;;;;;;16.45;10.88;;;;;;;14.03;100.00;102291.97;6203901;23;20333;-70
2022/08/08 04:25:19;;;;;;;16.40;11.02;;;;;;;14.03;100.00;102294.69;6200689;23;20005;-71
2022/08/08 04:27:45;;;;;;;19.05;10.13;;;;;;;14.08;100.00;102303.03;6215605;23;20000;-71
2022/08/08 04:30:11;;;;;;;14.27;10.55;;;;;;;14.05;100.00;102293.41;6214551;23;20008;-70
2022/08/08 04:32:36;;;;;;;14.65;10.68;;;;;;;14.04;100.00;102301.78;6214815;23;20078;-71
2022/08/08 04:35:02;;;;;;;16.42;11.38;;;;;;;13.99;100.00;102295.09;6215020;23;20409;-71
2022/08/08 04:37:27;;;;;;;16.52;10.35;;;;;;;14.08;100.00;102301.13;6214811;23;20008;-71
2022/08/08 04:39:53;;;;;;;16.70;11.02;;;;;;;14.14;100.00;102307.63;6187934;23;20532;-71
2022/08/08 04:42:18;;;;;;;17.45;10.20;;;;;;;14.13;100.00;102300.50;6214845;23;20015;-71
2022/08/08 04:44:43;;;;;;;17.42;10.45;;;;;;;14.06;100.00;102316.03;6215130;23;20005;-71
2022/08/08 04:47:09;;;;;;;15.07;10.75;;;;;;;14.13;100.00;102316.81;6215036;23;20440;-71
2022/08/08 04:49:34;;;;;;;16.17;10.48;;;;;;;14.12;100.00;102320.63;6214476;23;20008;-71
2022/08/08 04:51:59;;;;;;;19.42;11.45;;;;;;;14.14;100.00;102324.78;6214958;23;20005;-71
2022/08/08 04:54:25;;;;;;;14.25;10.48;;;;;;;14.15;100.00;102331.09;6214677;23;20004;-71
2022/08/08 04:56:50;;;;;;;16.42;11.30;;;;;;;14.11;100.00;102329.81;6214842;23;20011;-71
2022/08/08 04:59:15;;;;;;;16.25;11.25;;;;;;;14.06;100.00;102332.34;6213174;23;19997;-70
2022/08/08 05:01:41;;;;;;;16.70;11.20;;;;;;;13.99;100.00;102337.78;6209532;23;20013;-71
2022/08/08 05:04:06;;;;;;;13.50;11.43;;;;;;;13.91;100.00;102336.13;6214440;23;20000;-71
2022/08/08 05:06:31;;;;;;;15.90;11.30;;;;;;;13.87;100.00;102339.50;6215160;23;20072;-71
2022/08/08 05:08:57;;;;;;;17.90;11.43;;;;;;;13.85;100.00;102336.97;6215140;23;20474;-71
2022/08/08 05:11:22;;;;;;;20.70;12.13;;;;;;;13.83;100.00;102339.91;6187047;23;20027;-70
2022/08/08 05:13:48;;;;;;;19.00;12.30;;;;;;;13.83;100.00;102342.63;6215152;23;20004;-71
2022/08/08 05:16:13;;;;;;;18.10;11.75;;;;;;;13.91;100.00;102347.03;6214434;23;20012;-70
2022/08/08 05:18:38;;;;;;;19.33;12.30;;;;;;;13.98;100.00;102344.31;6214432;23;20001;-71
2022/08/08 05:21:08;;;;;;;18.17;11.88;;;;;;;13.98;100.00;102356.03;6214032;23;20004;-70
2022/08/08 05:23:33;;;;;;;18.23;11.25;;;;;;;14.02;100.00;102355.59;6213684;23;20384;-71
2022/08/08 05:26:00;;;;;;;17.98;11.38;;;;;;;14.05;100.00;102352.44;6214922;23;20033;-71
2022/08/08 05:28:25;;;;;;;18.83;11.73;;;;;;;14.08;100.00;102357.47;6214421;23;20437;-71
2022/08/08 05:30:50;;;;;;;16.88;11.02;;;;;;;14.08;100.00;102349.31;6214394;23;20012;-71
2022/08/08 05:33:16;;;;;;;17.67;11.25;;;;;;;14.18;100.00;102347.00;6187916;23;20004;-71
2022/08/08 05:35:42;;;;;;;16.15;11.27;;;;;;;14.29;100.00;102343.59;6214015;23;20480;-71
2022/08/08 05:38:15;;;;;;;19.98;11.32;;;;;;;14.38;100.00;102343.38;6214780;23;20369;-71
2022/08/08 05:40:46;;;;;;;16.38;10.30;;;;;;;14.51;100.00;102351.53;6214327;23;20004;-71
2022/08/08 05:43:22;;;;;;;16.73;10.63;;;;;;;14.59;100.00;102347.72;6214146;23;20019;-70
2022/08/08 05:45:48;;;;;;;14.85;10.25;;;;;;;14.73;100.00;102352.06;6213554;23;20030;-70
2022/08/08 05:48:15;;;;;;;12.73;9.60;;;;;;;14.83;100.00;102348.91;6214310;23;20005;-70
2022/08/08 05:50:40;;;;;;;13.20;9.68;;;;;;;14.93;100.00;102349.28;6214504;23;20004;-70
2022/08/08 05:53:06;;;;;;;18.98;9.90;;;;;;;14.96;100.00;102350.72;6188045;23;20070;-70
2022/08/08 05:55:33;;;;;;;11.30;9.13;;;;;;;15.04;100.00;102356.75;6213554;23;20425;-70
2022/08/08 05:58:00;;;;;;;13.13;9.77;;;;;;;15.09;100.00;102352.53;6214252;23;20017;-70
2022/08/08 06:00:30;;;;;;;15.85;9.45;;;;;;;15.12;100.00;102358.38;6186252;23;20441;-70
2022/08/08 06:03:09;;;;;;;14.75;8.90;;;;;;;15.20;100.00;102363.59;6209890;23;20016;-70
2022/08/08 06:05:39;;;;;;;14.07;9.00;;;;;;;15.24;100.00;102364.00;6187467;23;20001;-70
2022/08/08 06:08:06;;;;;;;14.55;9.30;;;;;;;15.28;100.00;102365.22;6186512;23;20005;-69
2022/08/08 06:10:32;;;;;;;14.75;9.35;;;;;;;15.34;100.00;102361.63;6212678;23;20009;-69
2022/08/08 06:13:00;;;;;;;12.57;8.90;;;;;;;15.38;100.00;102364.72;6212678;23;20311;-69
2022/08/08 06:15:27;;;;;;;10.77;8.30;;;;;;;15.45;100.00;102370.97;6213537;23;20381;-70
2022/08/08 06:17:55;;;;;;;15.82;9.27;;;;;;;15.52;100.00;102368.19;6188074;23;20012;-69
2022/08/08 06:20:21;;;;;;;12.20;8.90;;;;;;;15.59;100.00;102377.19;6214423;23;20040;-69
2022/08/08 06:22:46;;;;;;;10.00;8.45;;;;;;;15.65;100.00;102373.56;6214117;23;20009;-69
2022/08/08 06:25:11;;;;;;;13.43;9.15;;;;;;;15.70;100.00;102373.75;6214104;23;20009;-69
2022/08/08 06:27:45;;;;;;;13.75;9.30;;;;;;;15.76;100.00;102372.84;6214892;23;20008;-69
2022/08/08 06:30:12;;;;;;;14.88;8.98;;;;;;;15.81;100.00;102374.94;6214692;23;20013;-69
2022/08/08 06:32:47;;;;;;;16.88;9.48;;;;;;;15.92;100.00;102378.84;6186745;23;20023;-69
2022/08/08 06:35:14;;;;;;;16.58;9.48;;;;;;;16.01;100.00;102393.88;6213709;23;20005;-69
2022/08/08 06:38:01;;;;;;;13.90;8.50;;;;;;;16.11;100.00;102394.19;6214658;23;20005;-69
2022/08/08 06:40:30;;;;;;;11.73;8.45;;;;;;;16.11;100.00;102388.75;6214528;23;20449;-71
2022/08/08 06:43:06;;;;;;;13.88;8.43;;;;;;;16.19;100.00;102389.53;6213402;23;20038;-70
2022/08/08 06:45:32;;;;;;;13.63;8.25;;;;;;;16.25;100.00;102394.91;6213982;23;20577;-71
2022/08/08 06:47:59;;;;;;;15.13;8.80;;;;;;;16.32;100.00;102391.28;6214778;23;20004;-71
2022/08/08 06:50:25;;;;;;;11.82;8.02;;;;;;;16.39;100.00;102392.88;6214067;23;20047;-70
2022/08/08 06:52:51;;;;;;;16.38;8.50;;;;;;;16.46;98.61;102395.53;6214126;23;20008;-70
2022/08/08 06:55:17;;;;;;;14.38;8.48;;;;;;;16.53;100.00;102390.00;6213756;23;20036;-68
2022/08/08 06:57:43;;;;;;;10.10;7.75;;;;;;;16.57;98.54;102393.94;6214381;23;20004;-69
2022/08/08 07:00:09;;;;;;;11.35;7.50;;;;;;;16.60;98.10;102391.59;6214498;23;20009;-69
2022/08/08 07:02:38;;;;;;;14.32;8.10;;;;;;;16.70;97.06;102401.16;6209250;23;20099;-69
2022/08/08 07:05:12;;;;;;;14.98;7.47;;;;;;;16.73;97.78;102403.44;6213711;23;20008;-70
2022/08/08 07:07:55;;;;;;;13.90;7.30;;;;;;;16.77;93.69;102399.19;6214722;23;20005;-69
2022/08/08 07:10:23;;;;;;;7.60;6.70;;;;;;;16.88;93.38;102400.34;6215722;23;20012;-69
2022/08/08 07:13:03;;;;;;;13.50;6.97;;;;;;;16.94;92.39;102408.47;6215764;23;20011;-70
2022/08/08 07:15:46;;;;;;;12.52;6.90;;;;;;;17.04;90.75;102401.63;6216811;23;20007;-70
2022/08/08 07:18:18;;;;;;;12.88;6.97;;;;;;;17.11;90.15;102403.19;6216377;23;20011;-71
2022/08/08 07:20:46;;;;;;;11.23;6.10;;;;;;;17.18;89.02;102408.56;6216395;23;20012;-70
2022/08/08 07:23:26;;;;;;;10.27;6.25;;;;;;;17.27;88.08;102417.28;6233634;23;19992;-70
2022/08/08 07:25:54;;;;;;;8.43;5.75;;;;;;;17.34;86.74;102413.38;6240214;23;20031;-71
2022/08/08 07:28:24;;;;;;;8.43;5.95;;;;;;;17.41;85.92;102407.84;6216171;23;20001;-70
2022/08/08 07:30:50;;;;;;;8.57;5.18;;;;;;;17.58;85.16;102407.16;6216108;23;20453;-71
2022/08/08 07:33:15;;;;;;;10.23;4.57;;;;;;;17.64;81.13;102406.22;6215285;23;20034;-71
2022/08/08 07:35:43;;;;;;;11.63;5.35;;;;;;;17.73;82.00;102409.47;6214748;23;20042;-71
2022/08/08 07:38:09;;;;;;;11.73;4.80;;;;;;;17.77;80.51;102411.50;6216060;23;20083;-71
2022/08/08 07:40:35;;;;;;;7.78;4.35;;;;;;;17.88;80.69;102410.66;6215157;23;20012;-70
2022/08/08 07:43:03;;;;;;;7.57;4.18;;;;;;;17.97;78.75;102413.94;6215298;23;20023;-69
2022/08/08 07:45:29;;;;;;;7.85;4.03;;;;;;;17.99;78.25;102410.97;6215147;23;20015;-70
2022/08/08 07:47:57;;;;;;;8.23;3.65;;;;;;;18.04;78.10;102411.06;6215175;23;20004;-69
2022/08/08 07:50:23;;;;;;;13.35;3.88;;;;;;;18.06;77.24;102414.41;6214645;23;20410;-70
2022/08/08 07:52:54;;;;;;;12.20;4.28;;;;;;;18.17;77.00;102415.50;6215336;23;20000;-70
2022/08/08 07:55:27;;;;;;;8.45;4.10;;;;;;;18.21;76.11;102419.44;6187993;23;20016;-70
2022/08/08 07:58:20;;;;;;;6.22;3.72;;;;;;;18.21;76.43;102417.50;6215739;23;20004;-69
2022/08/08 08:00:51;;;;;;;9.48;4.20;;;;;;;18.28;76.55;102424.78;6211114;23;20683;-71
2022/08/08 08:03:34;;;;;;;11.48;3.67;;;;;;;18.34;75.89;102423.81;6215610;23;20008;-70
2022/08/08 08:06:03;;;;;;;6.75;3.20;;;;;;;18.33;74.63;102433.13;6216250;23;20011;-70
2022/08/08 08:08:32;;;;;;;6.90;3.35;;;;;;;18.41;74.90;102428.09;6214896;23;20330;-70
2022/08/08 08:10:58;;;;;;;5.45;2.75;;;;;;;18.43;72.50;102425.13;6188524;23;20412;-70
2022/08/08 08:13:48;;;;;;;8.55;3.20;;;;;;;18.47;73.56;102430.97;6215498;23;20009;-69
2022/08/08 08:16:21;;;;;;;6.20;3.40;;;;;;;18.48;73.16;102430.75;6215340;23;20005;-72
2022/08/08 08:18:58;;;;;;;6.53;3.10;;;;;;;18.58;73.64;102438.34;6215279;23;20005;-71
2022/08/08 08:21:26;;;;;;;7.53;2.85;;;;;;;18.62;72.42;102428.56;6214704;23;20000;-70
2022/08/08 08:23:52;;;;;;;9.02;2.75;;;;;;;18.69;72.76;102433.91;6214778;23;20028;-70
2022/08/08 08:26:17;;;;;;;5.78;2.67;;;;;;;18.78;70.90;102438.81;6214240;23;20001;-70
2022/08/08 08:28:43;;;;;;;6.85;2.85;;;;;;;18.75;71.31;102438.44;6214754;23;20005;-70
2022/08/08 08:31:09;;;;;;;9.90;3.20;;;;;;;18.72;69.78;102431.53;6215149;23;20012;-70
2022/08/08 08:33:34;;;;;;;6.28;2.85;;;;;;;18.80;70.33;102435.81;6213172;23;20088;-70
2022/08/08 08:36:00;;;;;;;7.25;2.78;;;;;;;18.89;71.21;102445.38;6215302;23;20032;-70
2022/08/08 08:38:26;;;;;;;7.15;2.78;;;;;;;18.92;69.78;102438.56;6214590;23;20004;-70
2022/08/08 08:40:52;;;;;;;9.27;2.92;;;;;;;18.93;69.88;102438.31;6215532;23;20430;-69
2022/08/08 08:43:19;;;;;;;4.40;2.25;;;;;;;18.99;69.04;102452.13;6214751;23;20414;-70
2022/08/08 08:45:46;;;;;;;7.35;2.80;;;;;;;19.00;68.15;102449.16;6215386;23;20007;-70
2022/08/08 08:48:12;;;;;;;8.43;2.40;;;;;;;18.95;69.07;102444.38;6215011;23;20469;-70
2022/08/08 08:50:40;;;;;;;4.63;2.15;;;;;;;19.03;68.26;102445.09;6215076;23;20004;-69
2022/08/08 08:53:07;;;;;;;9.20;2.70;;;;;;;19.09;67.14;102452.34;6214860;23;20005;-70
2022/08/08 08:55:37;;;;;;;5.55;2.40;;;;;;;19.07;66.48;102449.84;6215263;23;20012;-70
2022/08/08 08:58:04;;;;;;;6.05;2.60;;;;;;;19.16;67.40;102443.97;6214497;23;20001;-71
2022/08/08 09:00:30;;;;;;;9.50;2.45;;;;;;;19.18;67.58;102448.13;6212216;23;20000;-68
2022/08/08 09:02:58;;;;;;;5.60;2.20;;;;;;;19.22;65.64;102452.06;6213654;23;20021;-69
2022/08/08 09:05:25;;;;;;;5.32;2.70;;;;;;;19.24;66.39;102447.16;6215019;23;20008;-69
2022/08/08 09:07:54;;;;;;;6.03;2.33;;;;;;;19.38;66.59;102446.88;6213504;23;20008;-69
2022/08/08 09:10:22;;;;;;;6.47;2.17;;;;;;;19.41;64.88;102452.69;6214928;23;20012;-70
2022/08/08 09:12:49;;;;;;;6.95;2.15;;;;;;;19.48;63.88;102453.38;6215175;23;20004;-70
2022/08/08 09:15:15;;;;;;;5.55;2.30;;;;;;;19.55;64.50;102450.50;6214904;23;20370;-70
2022/08/08 09:17:41;;;;;;;8.52;2.22;;;;;;;19.63;63.21;102461.06;6213916;23;20065;-71
2022/08/08 09:20:08;;;;;;;10.57;2.70;;;;;;;19.69;63.44;102447.41;6187956;23;20099;-72
2022/08/08 09:22:34;;;;;;;8.93;2.08;;;;;;;19.75;63.31;102450.03;6214778;23;20017;-71
2022/08/08 09:25:00;;;;;;;6.43;1.95;;;;;;;19.80;62.22;102455.63;6215139;23;20036;-71
2022/08/08 09:27:26;;;;;;;6.65;1.83;;;;;;;19.91;62.32;102456.63;6187468;23;20063;-69
2022/08/08 09:30:07;;;;;;;6.68;1.95;;;;;;;19.97;62.71;102454.81;6188123;23;20016;-72
2022/08/08 09:32:41;;;;;;;4.05;1.90;;;;;;;20.14;63.07;102460.28;6214337;23;20043;-71
2022/08/08 09:35:13;;;;;;;5.05;2.20;;;;;;;20.14;62.67;102454.78;6215084;23;20000;-71
2022/08/08 09:37:46;;;;;;;6.43;2.08;;;;;;;20.24;62.88;102452.22;6212660;23;20426;-72
2022/08/08 09:40:17;;;;;;;5.93;1.98;;;;;;;20.21;61.28;102454.63;6215057;23;20001;-71
2022/08/08 09:43:05;;;;;;;7.50;2.00;;;;;;;20.29;62.94;102449.56;6214342;23;20536;-69
2022/08/08 09:45:36;;;;;;;6.50;1.73;;;;;;;20.30;61.96;102459.44;6214989;23;20008;-70
2022/08/08 09:48:05;;;;;;;3.75;1.40;;;;;;;20.42;61.20;102453.03;6214167;23;20076;-70
2022/08/08 09:50:30;;;;;;;5.45;2.22;;;;;;;20.41;61.34;102451.34;6213997;23;20009;-70
2022/08/08 09:52:56;;;;;;;7.93;2.25;;;;;;;20.47;61.81;102453.09;6214908;23;20476;-71
2022/08/08 09:55:24;;;;;;;5.93;1.90;;;;;;;20.60;62.32;102451.91;6213366;23;20024;-69
2022/08/08 09:57:56;;;;;;;6.07;1.77;;;;;;;20.65;61.16;102444.59;6213915;23;20015;-69
2022/08/08 10:00:24;;;;;;;3.05;1.33;;;;;;;20.77;60.31;102447.22;6213325;23;20062;-69
2022/08/08 10:02:51;;;;;;;3.53;1.50;;;;;;;20.92;60.74;102452.09;6210826;23;20430;-69
2022/08/08 10:05:27;;;;;;;4.75;1.90;;;;;;;20.96;60.25;102455.19;6188029;23;20001;-68
2022/08/08 10:07:56;;;;;;;7.15;1.95;;;;;;;21.00;60.35;102451.66;6214736;23;20090;-69
2022/08/08 10:10:26;;;;;;;2.55;1.42;;;;;;;20.93;59.84;102441.94;6214759;23;20035;-70
2022/08/08 10:12:51;;;;;;;3.50;1.45;;;;;;;20.95;59.02;102453.50;6214712;23;20084;-70
2022/08/08 10:15:17;;;;;;;4.97;1.45;;;;;;;20.98;58.15;102458.50;6213961;23;20087;-69
2022/08/08 10:17:47;;;;;;;5.38;1.95;;;;;;;20.93;58.46;102450.19;6215263;23;20009;-71
2022/08/08 10:20:13;;;;;;;4.97;1.90;;;;;;;20.88;58.64;102448.19;6240289;23;20020;-69
2022/08/08 10:22:51;;;;;;;5.05;1.60;;;;;;;20.85;57.90;102448.72;6230318;23;20009;-70
2022/08/08 10:25:21;;;;;;;2.05;1.02;;;;;;;20.92;57.82;102449.34;6214563;23;20453;-69
2022/08/08 10:27:50;;;;;;;4.50;1.33;;;;;;;20.96;57.35;102439.47;6214180;23;20043;-69
2022/08/08 10:30:16;;;;;;;6.97;1.30;;;;;;;21.14;57.83;102443.00;6214842;23;20076;-70
2022/08/08 10:32:49;;;;;;;4.72;1.80;;;;;;;21.21;58.47;102440.84;6214487;23;20035;-70
2022/08/08 10:35:17;;;;;;;4.32;1.90;;;;;;;21.32;58.71;102437.13;6214326;23;20421;-71
2022/08/08 10:37:56;;;;;;;4.32;1.58;;;;;;;21.46;57.85;102442.25;6213428;23;20330;-70
2022/08/08 10:40:23;;;;;;;6.57;1.58;;;;;;;21.59;57.10;102436.34;6214300;23;20001;-69
2022/08/08 10:42:54;;;;;;;6.05;1.80;;;;;;;21.57;56.44;102449.53;6216912;23;20009;-69
2022/08/08 10:45:19;;;;;;;6.23;1.80;;;;;;;21.46;55.82;102428.47;6217302;23;20410;-69
2022/08/08 10:47:55;;;;;;;3.95;1.40;;;;;;;21.54;54.99;102439.03;6214506;23;20072;-71
2022/08/08 10:50:21;;;;;;;5.25;1.70;;;;;;;21.57;56.18;102441.25;6216674;23;20080;-71
2022/08/08 10:52:47;;;;;;;5.97;1.40;;;;;;;21.49;56.16;102447.22;6216213;23;20011;-69
2022/08/08 10:55:16;;;;;;;4.00;1.33;;;;;;;21.45;56.51;102449.66;6216277;23;20012;-69
2022/08/08 10:57:47;;;;;;;5.78;1.52;;;;;;;21.44;56.67;102445.25;6215345;23;20012;-70
2022/08/08 11:00:19;;;;;;;4.78;1.95;;;;;;;21.48;56.37;102434.53;6215530;23;20376;-70
2022/08/08 11:02:45;;;;;;;3.42;1.30;;;;;;;21.66;55.51;102438.88;6211395;23;20017;-70
2022/08/08 11:05:13;;;;;;;4.65;1.50;;;;;;;21.79;54.58;102434.88;6215673;23;20009;-69
2022/08/08 11:07:47;;;;;;;2.03;1.38;;;;;;;21.84;54.44;102437.66;6216208;23;20008;-70
2022/08/08 11:10:17;;;;;;;6.85;1.58;;;;;;;22.07;55.03;102437.31;6215952;23;20329;-70
2022/08/08 11:12:54;;;;;;;3.95;1.17;;;;;;;22.24;54.53;102425.28;6189441;23;20004;-70
2022/08/08 11:15:22;;;;;;;2.30;1.10;;;;;;;22.08;52.06;102433.44;6189271;23;20016;-70
2022/08/08 11:17:49;;;;;;;4.47;1.13;;;;;;;22.01;52.94;102443.88;6216051;23;20083;-69
2022/08/08 11:20:22;;;;;;;4.53;1.70;;;;;;;22.01;53.49;102432.84;6215438;23;20016;-70
2022/08/08 11:22:54;;;;;;;3.75;1.38;;;;;;;22.01;52.89;102432.84;6216027;23;20425;-69
2022/08/08 11:25:24;;;;;;;4.63;1.17;;;;;;;21.94;51.93;102433.06;6215517;23;20442;-70
2022/08/08 11:27:52;;;;;;;4.00;1.30;;;;;;;21.85;52.79;102433.81;6214288;23;20008;-70
2022/08/08 11:30:20;;;;;;;1.92;1.25;;;;;;;21.81;52.58;102427.16;6216009;23;20009;-70
2022/08/08 11:32:47;;;;;;;4.53;1.30;;;;;;;21.81;53.51;102436.25;6215300;23;20001;-69
2022/08/08 11:35:12;;;;;;;1.67;0.90;;;;;;;21.79;53.09;102421.09;6215915;23;20005;-72
2022/08/08 11:37:40;;;;;;;2.38;0.98;;;;;;;21.73;52.64;102426.53;6214983;23;20001;-70
2022/08/08 11:40:08;;;;;;;4.43;1.30;;;;;;;21.68;52.14;102420.16;6216138;23;20020;-69
2022/08/08 11:42:35;;;;;;;1.77;1.00;;;;;;;21.65;53.55;102421.53;6214244;23;20062;-70
2022/08/08 11:45:01;;;;;;;3.78;0.98;;;;;;;21.67;53.50;102419.31;6216013;23;20005;-70